Sumner, Michigan
Current Conditions -  °F | °C
As of 12:35 PM on Sunday 23 Nov 2014 (Local Time) from KAMN Reporting Station
Overcast Overcast  
Wind Chill: 46°   Ceiling: 4000
Heat Index: 50°   Visibility: 10mi
Dew Point: 47°   Wind: 9mph
Humidity: 89%   Direction: 180°S
Pressure: 29.76"   Gusts: NA
Location:  43.31°N, 84.82°W
Report Text: KAMN 231735Z AUTO 18008KT 10SM SCT014 BKN040 OVC049 10/08 A2976 RMK AO2 T00980081
Loading
Personal Weather Stations






























Interactive Weather Map New forecast layout! Learn more

10-Day Weather Forecast

Advertisements
Track Severe Weather on mobile